Time;durP1;ratioP1;P1;durP2;ratioP2;P2;SDS_P1;SDS_P2;PMS_P1;PMS_P2;Temp;Humidity;BMP_temperature;BMP_pressure;BME280_temperature;BME280_humidity;BME280_pressure;Samples;Min_cycle;Max_cycle;Signal;HPM_P1;HPM_P2
2021/01/14 00:01:21;;;;;;;1.00;0.60;;;;;;;;;;5073182;28;20260;-48
2021/01/14 00:03:47;;;;;;;0.70;0.50;;;;;;;;;;5072515;28;20784;-50
2021/01/14 00:06:13;;;;;;;0.75;0.60;;;;;;;;;;5074306;28;20166;-50
2021/01/14 00:08:39;;;;;;;0.80;0.60;;;;;;;;;;5073959;28;20174;-49
2021/01/14 00:11:05;;;;;;;1.65;0.70;;;;;;;;;;5065639;28;20179;-49
2021/01/14 00:13:31;;;;;;;0.80;0.50;;;;;;;;;;5064447;28;20627;-49
2021/01/14 00:15:57;;;;;;;0.50;0.50;;;;;;;;;;5072797;28;20182;-49
2021/01/14 00:18:23;;;;;;;0.68;0.60;;;;;;;;;;5073268;28;20231;-49
2021/01/14 00:20:49;;;;;;;0.98;0.70;;;;;;;;;;5074416;28;20444;-49
2021/01/14 00:23:15;;;;;;;0.93;0.60;;;;;;;;;;5068743;28;20209;-49
2021/01/14 00:25:41;;;;;;;0.73;0.60;;;;;;;;;;5073938;28;20179;-50
2021/01/14 00:28:07;;;;;;;0.43;0.43;;;;;;;;;;5074982;28;20224;-48
2021/01/14 00:30:33;;;;;;;0.60;0.40;;;;;;;;;;5074422;28;20564;-49
2021/01/14 00:32:59;;;;;;;2.72;0.60;;;;;;;;;;5064864;28;20263;-49
2021/01/14 00:35:29;;;;;;;0.30;0.30;;;;;;;;;;5070730;28;20478;-49
2021/01/14 00:37:55;;;;;;;0.93;0.45;;;;;;;;;;5078692;28;20182;-49
2021/01/14 00:40:28;;;;;;;1.38;0.30;;;;;;;;;;5078278;28;20232;-49
2021/01/14 00:42:59;;;;;;;0.52;0.43;;;;;;;;;;5073661;28;20194;-49
2021/01/14 00:45:25;;;;;;;0.45;0.35;;;;;;;;;;5077713;28;20431;-49
2021/01/14 00:47:51;;;;;;;0.65;0.50;;;;;;;;;;5078418;28;20192;-49
2021/01/14 00:50:17;;;;;;;0.52;0.38;;;;;;;;;;5076641;28;20270;-49
2021/01/14 00:52:43;;;;;;;0.80;0.50;;;;;;;;;;5068698;28;20444;-48
2021/01/14 00:55:09;;;;;;;0.65;0.38;;;;;;;;;;5077049;28;20542;-49
2021/01/14 00:57:36;;;;;;;0.50;0.50;;;;;;;;;;5078016;28;20570;-50
2021/01/14 01:00:07;;;;;;;0.45;0.45;;;;;;;;;;5060724;28;20175;-49
2021/01/14 01:02:33;;;;;;;0.43;0.43;;;;;;;;;;5068314;28;20178;-50
2021/01/14 01:04:59;;;;;;;0.68;0.40;;;;;;;;;;5077553;28;20503;-49
2021/01/14 01:07:25;;;;;;;0.90;0.50;;;;;;;;;;5078308;28;20167;-49
2021/01/14 01:09:51;;;;;;;0.45;0.45;;;;;;;;;;5076437;28;20557;-49
2021/01/14 01:12:17;;;;;;;0.50;0.50;;;;;;;;;;5074016;28;20197;-49
2021/01/14 01:14:43;;;;;;;0.77;0.43;;;;;;;;;;5068728;28;20183;-48
2021/01/14 01:17:09;;;;;;;0.95;0.50;;;;;;;;;;5077914;28;20199;-49
2021/01/14 01:19:35;;;;;;;1.13;0.60;;;;;;;;;;5076864;28;20218;-49
2021/01/14 01:22:01;;;;;;;0.63;0.55;;;;;;;;;;5076188;28;20171;-50
2021/01/14 01:24:27;;;;;;;0.63;0.40;;;;;;;;;;5064162;28;20214;-50
2021/01/14 01:26:53;;;;;;;0.50;0.40;;;;;;;;;;5077318;28;20175;-49
2021/01/14 01:29:20;;;;;;;0.40;0.40;;;;;;;;;;5076527;28;20561;-49
2021/01/14 01:31:46;;;;;;;0.65;0.55;;;;;;;;;;5070463;28;20170;-49
2021/01/14 01:34:12;;;;;;;0.52;0.40;;;;;;;;;;5077005;28;20574;-49
2021/01/14 01:36:38;;;;;;;0.40;0.25;;;;;;;;;;5077106;28;20174;-50
2021/01/14 01:39:04;;;;;;;0.50;0.43;;;;;;;;;;5067080;28;20585;-49
2021/01/14 01:41:31;;;;;;;1.17;0.50;;;;;;;;;;5077659;28;20185;-49
2021/01/14 01:43:57;;;;;;;0.50;0.40;;;;;;;;;;5076659;28;20201;-50
2021/01/14 01:46:24;;;;;;;0.35;0.30;;;;;;;;;;5075703;28;20166;-49
2021/01/14 01:48:50;;;;;;;0.50;0.50;;;;;;;;;;5075983;28;20617;-49
2021/01/14 01:51:16;;;;;;;0.47;0.45;;;;;;;;;;5077785;28;20167;-48
2021/01/14 01:53:42;;;;;;;0.40;0.40;;;;;;;;;;5077064;28;20185;-48
2021/01/14 01:56:08;;;;;;;1.25;0.38;;;;;;;;;;5077028;28;20170;-49
2021/01/14 01:58:35;;;;;;;0.50;0.30;;;;;;;;;;5072673;28;20179;-49
2021/01/14 02:01:01;;;;;;;0.55;0.40;;;;;;;;;;5074651;28;20589;-50
2021/01/14 02:03:31;;;;;;;0.32;0.32;;;;;;;;;;5074380;28;20228;-49
2021/01/14 02:05:57;;;;;;;0.30;0.30;;;;;;;;;;5075723;28;20198;-49
2021/01/14 02:08:26;;;;;;;0.32;0.30;;;;;;;;;;5064958;28;20175;-49
2021/01/14 02:10:51;;;;;;;0.65;0.40;;;;;;;;;;5071849;28;20602;-49
2021/01/14 02:13:26;;;;;;;0.30;0.30;;;;;;;;;;5070331;28;20301;-50
2021/01/14 02:15:54;;;;;;;0.40;0.40;;;;;;;;;;5073406;28;20201;-49
2021/01/14 02:18:20;;;;;;;0.47;0.30;;;;;;;;;;5066468;28;20178;-49
2021/01/14 02:20:50;;;;;;;0.43;0.28;;;;;;;;;;5063357;28;20179;-50
2021/01/14 02:23:27;;;;;;;0.77;0.43;;;;;;;;;;5058377;28;20191;-49
2021/01/14 02:26:03;;;;;;;0.30;0.30;;;;;;;;;;5075340;28;20178;-48
2021/01/14 02:28:29;;;;;;;0.82;0.30;;;;;;;;;;5073844;28;20189;-49
2021/01/14 02:30:55;;;;;;;0.65;0.40;;;;;;;;;;5076121;28;20541;-49
2021/01/14 02:33:21;;;;;;;0.30;0.30;;;;;;;;;;5075737;28;20186;-49
2021/01/14 02:35:47;;;;;;;0.38;0.30;;;;;;;;;;5075516;28;20497;-50
2021/01/14 02:38:13;;;;;;;0.28;0.28;;;;;;;;;;5066936;28;20187;-49
2021/01/14 02:40:39;;;;;;;0.30;0.30;;;;;;;;;;5058142;28;20217;-50
2021/01/14 02:43:05;;;;;;;0.28;0.28;;;;;;;;;;5075995;28;20206;-49
2021/01/14 02:45:33;;;;;;;0.68;0.30;;;;;;;;;;5059046;28;20261;-49
2021/01/14 02:47:59;;;;;;;0.60;0.50;;;;;;;;;;5074907;28;20173;-49
2021/01/14 02:50:29;;;;;;;0.50;0.50;;;;;;;;;;5068704;28;20179;-49
2021/01/14 02:52:58;;;;;;;0.40;0.35;;;;;;;;;;5074261;28;20258;-49
2021/01/14 02:55:25;;;;;;;0.40;0.40;;;;;;;;;;5071971;28;20193;-49
2021/01/14 02:57:51;;;;;;;0.30;0.30;;;;;;;;;;5071516;28;20225;-49
2021/01/14 03:00:17;;;;;;;0.65;0.40;;;;;;;;;;5068246;28;20183;-49
2021/01/14 03:02:43;;;;;;;0.50;0.40;;;;;;;;;;5070216;28;20186;-49
2021/01/14 03:05:09;;;;;;;0.43;0.40;;;;;;;;;;5073512;28;20403;-49
2021/01/14 03:07:35;;;;;;;1.98;0.50;;;;;;;;;;5075260;28;20188;-49
2021/01/14 03:10:01;;;;;;;0.47;0.40;;;;;;;;;;5075517;28;20167;-49
2021/01/14 03:12:27;;;;;;;0.63;0.40;;;;;;;;;;5060476;28;20183;-49
2021/01/14 03:14:53;;;;;;;0.30;0.30;;;;;;;;;;5066074;28;20307;-49
2021/01/14 03:17:19;;;;;;;0.57;0.43;;;;;;;;;;5075914;28;20183;-49
2021/01/14 03:19:45;;;;;;;0.60;0.47;;;;;;;;;;5074622;28;20213;-49
2021/01/14 03:22:11;;;;;;;0.40;0.25;;;;;;;;;;5065702;28;20227;-50
2021/01/14 03:24:39;;;;;;;0.82;0.60;;;;;;;;;;5075116;28;20465;-50
2021/01/14 03:27:05;;;;;;;0.32;0.20;;;;;;;;;;5074688;28;20586;-49
2021/01/14 03:29:31;;;;;;;0.60;0.40;;;;;;;;;;5075421;28;20178;-48
2021/01/14 03:32:01;;;;;;;0.25;0.20;;;;;;;;;;5067039;28;20171;-49
2021/01/14 03:34:28;;;;;;;0.38;0.35;;;;;;;;;;5073235;28;20189;-48
2021/01/14 03:36:56;;;;;;;0.65;0.32;;;;;;;;;;5074377;28;20174;-49
2021/01/14 03:39:26;;;;;;;0.73;0.38;;;;;;;;;;5075184;28;20227;-49
2021/01/14 03:41:52;;;;;;;0.90;0.47;;;;;;;;;;5066523;28;20183;-49
2021/01/14 03:44:18;;;;;;;0.30;0.30;;;;;;;;;;5074708;28;20194;-49
2021/01/14 03:46:45;;;;;;;0.30;0.22;;;;;;;;;;5074362;28;20218;-50
2021/01/14 03:49:11;;;;;;;0.30;0.30;;;;;;;;;;5074741;28;20170;-49
2021/01/14 03:51:37;;;;;;;1.15;0.40;;;;;;;;;;5071495;28;20181;-49
2021/01/14 03:54:03;;;;;;;0.65;0.32;;;;;;;;;;5074678;28;20178;-49
2021/01/14 03:56:29;;;;;;;0.55;0.40;;;;;;;;;;5074689;28;20182;-49
2021/01/14 03:58:55;;;;;;;0.88;0.45;;;;;;;;;;5072850;28;20197;-49
2021/01/14 04:01:21;;;;;;;0.30;0.30;;;;;;;;;;5072988;28;20217;-48
2021/01/14 04:03:47;;;;;;;1.65;0.40;;;;;;;;;;5074854;28;20214;-49
2021/01/14 04:06:13;;;;;;;0.70;0.20;;;;;;;;;;5073321;28;20575;-49
2021/01/14 04:08:40;;;;;;;0.32;0.25;;;;;;;;;;5074099;28;20212;-48
2021/01/14 04:11:06;;;;;;;0.40;0.30;;;;;;;;;;5067083;28;20479;-49
2021/01/14 04:13:32;;;;;;;0.20;0.20;;;;;;;;;;5068770;28;20182;-49
2021/01/14 04:15:58;;;;;;;0.30;0.30;;;;;;;;;;5054840;28;20443;-49
2021/01/14 04:18:24;;;;;;;0.98;0.40;;;;;;;;;;5072541;28;20220;-48
2021/01/14 04:20:50;;;;;;;0.45;0.40;;;;;;;;;;5073639;28;20180;-49
2021/01/14 04:23:16;;;;;;;0.77;0.30;;;;;;;;;;5074322;28;20577;-48
2021/01/14 04:25:43;;;;;;;0.35;0.20;;;;;;;;;;5073885;28;20217;-50
2021/01/14 04:28:09;;;;;;;0.40;0.38;;;;;;;;;;5073361;28;20179;-49
2021/01/14 04:30:36;;;;;;;1.10;0.30;;;;;;;;;;5070298;28;20482;-49
2021/01/14 04:33:12;;;;;;;0.30;0.30;;;;;;;;;;5073760;28;20220;-49
2021/01/14 04:35:44;;;;;;;0.30;0.30;;;;;;;;;;5074067;28;20230;-49
2021/01/14 04:38:11;;;;;;;0.22;0.22;;;;;;;;;;5074071;28;20574;-49
2021/01/14 04:40:37;;;;;;;0.65;0.30;;;;;;;;;;5071273;28;20207;-48
2021/01/14 04:43:03;;;;;;;0.40;0.30;;;;;;;;;;5064916;28;20175;-49
2021/01/14 04:45:29;;;;;;;0.30;0.30;;;;;;;;;;5073900;28;20182;-50
2021/01/14 04:47:55;;;;;;;0.60;0.43;;;;;;;;;;5072422;28;20187;-50
2021/01/14 04:50:22;;;;;;;0.40;0.40;;;;;;;;;;5062915;28;20198;-49
2021/01/14 04:52:48;;;;;;;0.30;0.30;;;;;;;;;;5077306;28;20174;-50
2021/01/14 04:55:14;;;;;;;1.73;0.30;;;;;;;;;;5065786;28;20175;-49
2021/01/14 04:57:43;;;;;;;0.30;0.30;;;;;;;;;;5064714;28;20218;-50
2021/01/14 05:00:11;;;;;;;0.38;0.20;;;;;;;;;;5074559;28;20261;-49
2021/01/14 05:02:40;;;;;;;0.60;0.35;;;;;;;;;;5073003;28;20570;-49
2021/01/14 05:05:11;;;;;;;0.35;0.30;;;;;;;;;;5072831;28;20232;-50
2021/01/14 05:07:46;;;;;;;0.40;0.40;;;;;;;;;;5074269;28;20179;-49
2021/01/14 05:10:13;;;;;;;0.30;0.30;;;;;;;;;;5074219;28;20185;-49
2021/01/14 05:12:41;;;;;;;2.63;0.40;;;;;;;;;;5074075;28;20174;-49
2021/01/14 05:15:07;;;;;;;0.30;0.20;;;;;;;;;;5066693;28;20175;-49
2021/01/14 05:17:33;;;;;;;0.20;0.20;;;;;;;;;;5061316;28;20825;-50
2021/01/14 05:19:59;;;;;;;0.88;0.30;;;;;;;;;;5071969;28;20269;-49
2021/01/14 05:22:26;;;;;;;4.90;0.63;;;;;;;;;;5073807;28;20514;-49
2021/01/14 05:25:06;;;;;;;4.43;0.70;;;;;;;;;;5075547;28;20198;-49
2021/01/14 05:27:32;;;;;;;4.20;0.68;;;;;;;;;;5072013;28;20427;-49
2021/01/14 05:30:05;;;;;;;2.05;0.43;;;;;;;;;;5078097;28;20181;-49
2021/01/14 05:32:41;;;;;;;1.65;0.40;;;;;;;;;;5077935;28;20182;-50
2021/01/14 05:35:08;;;;;;;2.25;0.60;;;;;;;;;;5076154;28;20272;-49
2021/01/14 05:37:35;;;;;;;3.35;0.65;;;;;;;;;;5070783;28;20409;-49
2021/01/14 05:40:02;;;;;;;3.85;0.50;;;;;;;;;;5076505;28;20213;-49
2021/01/14 05:42:28;;;;;;;3.28;0.70;;;;;;;;;;5077267;28;20240;-49
2021/01/14 05:44:54;;;;;;;3.33;0.60;;;;;;;;;;5077068;28;20211;-50
2021/01/14 05:47:23;;;;;;;2.65;0.90;;;;;;;;;;5077207;28;20643;-49
2021/01/14 05:49:58;;;;;;;2.72;0.88;;;;;;;;;;5064766;28;20258;-50
2021/01/14 05:52:25;;;;;;;3.03;0.65;;;;;;;;;;5081770;28;20192;-50
2021/01/14 05:55:04;;;;;;;3.75;0.82;;;;;;;;;;5076469;28;20232;-49
2021/01/14 05:57:34;;;;;;;5.53;0.70;;;;;;;;;;5076793;28;20550;-49
2021/01/14 06:00:01;;;;;;;1.50;0.65;;;;;;;;;;5077079;28;20185;-49
2021/01/14 06:02:28;;;;;;;8.88;0.98;;;;;;;;;;5076117;28;20566;-49
2021/01/14 06:04:54;;;;;;;2.10;0.60;;;;;;;;;;5076618;28;20202;-49
2021/01/14 06:07:21;;;;;;;2.28;0.70;;;;;;;;;;5077002;28;20175;-49
2021/01/14 06:09:48;;;;;;;3.40;0.50;;;;;;;;;;5068801;28;20183;-49
2021/01/14 06:12:15;;;;;;;5.90;0.80;;;;;;;;;;5076456;28;20193;-49
2021/01/14 06:14:41;;;;;;;3.38;0.82;;;;;;;;;;5070318;28;20171;-49
2021/01/14 06:17:10;;;;;;;1.50;0.70;;;;;;;;;;5066623;28;20257;-49
2021/01/14 06:19:36;;;;;;;1.88;0.63;;;;;;;;;;5076066;28;20183;-50
2021/01/14 06:22:04;;;;;;;1.05;0.70;;;;;;;;;;5076037;28;20179;-50
2021/01/14 06:24:37;;;;;;;0.90;0.50;;;;;;;;;;5075901;28;20194;-49
2021/01/14 06:27:06;;;;;;;1.10;0.60;;;;;;;;;;5066081;28;20229;-48
2021/01/14 06:29:36;;;;;;;2.50;0.70;;;;;;;;;;5076475;28;20163;-49
2021/01/14 06:32:20;;;;;;;1.45;0.43;;;;;;;;;;5074081;28;20430;-49
2021/01/14 06:34:50;;;;;;;1.70;0.50;;;;;;;;;;5071342;28;20183;-48
2021/01/14 06:37:20;;;;;;;1.40;0.50;;;;;;;;;;5067727;28;20592;-48
2021/01/14 06:39:47;;;;;;;3.13;0.70;;;;;;;;;;5063752;28;20191;-49
2021/01/14 06:42:20;;;;;;;1.92;0.57;;;;;;;;;;5068675;28;20210;-50
2021/01/14 06:44:52;;;;;;;1.95;0.50;;;;;;;;;;5071964;28;20537;-49
2021/01/14 06:47:24;;;;;;;1.35;0.47;;;;;;;;;;5075836;28;20182;-49
2021/01/14 06:50:01;;;;;;;0.90;0.63;;;;;;;;;;5075587;28;20609;-49
2021/01/14 06:52:28;;;;;;;1.23;0.43;;;;;;;;;;5078206;28;20201;-49
2021/01/14 06:54:54;;;;;;;3.17;0.70;;;;;;;;;;5066122;28;20188;-50
2021/01/14 06:57:23;;;;;;;0.73;0.60;;;;;;;;;;5076669;28;20253;-49
2021/01/14 06:59:53;;;;;;;0.68;0.30;;;;;;;;;;5072499;28;20482;-49
2021/01/14 07:02:19;;;;;;;1.02;0.57;;;;;;;;;;5069484;28;20182;-49
2021/01/14 07:04:45;;;;;;;0.60;0.40;;;;;;;;;;5074251;28;20209;-49
2021/01/14 07:07:26;;;;;;;0.85;0.50;;;;;;;;;;5075579;28;20177;-49
2021/01/14 07:10:04;;;;;;;1.13;0.60;;;;;;;;;;5075992;28;20227;-49
2021/01/14 07:12:32;;;;;;;1.23;0.52;;;;;;;;;;5074846;28;20174;-49
2021/01/14 07:15:03;;;;;;;0.75;0.50;;;;;;;;;;5070286;28;20189;-48
2021/01/14 07:17:33;;;;;;;1.17;0.57;;;;;;;;;;5064800;28;20183;-49
2021/01/14 07:20:00;;;;;;;0.90;0.40;;;;;;;;;;5070158;28;20206;-49
2021/01/14 07:22:26;;;;;;;1.60;0.40;;;;;;;;;;5067747;28;20186;-50
2021/01/14 07:24:53;;;;;;;1.25;0.47;;;;;;;;;;5074774;28;20214;-49
2021/01/14 07:27:19;;;;;;;0.85;0.50;;;;;;;;;;5074962;28;20191;-49
2021/01/14 07:29:45;;;;;;;1.02;0.60;;;;;;;;;;5074599;28;20240;-50
2021/01/14 07:32:11;;;;;;;1.52;0.70;;;;;;;;;;5073838;28;20179;-49
2021/01/14 07:34:41;;;;;;;0.82;0.60;;;;;;;;;;5064829;28;20208;-50
2021/01/14 07:37:11;;;;;;;0.63;0.40;;;;;;;;;;5069737;28;20199;-49
2021/01/14 07:39:47;;;;;;;0.75;0.57;;;;;;;;;;5071117;28;20190;-49
2021/01/14 07:42:23;;;;;;;0.95;0.55;;;;;;;;;;5073882;28;20593;-49
2021/01/14 07:44:56;;;;;;;0.47;0.35;;;;;;;;;;5073770;28;20213;-49
2021/01/14 07:47:25;;;;;;;0.38;0.38;;;;;;;;;;5063281;28;20203;-49
2021/01/14 07:49:51;;;;;;;0.40;0.40;;;;;;;;;;5070078;28;20195;-49
2021/01/14 07:52:27;;;;;;;1.45;0.43;;;;;;;;;;5080328;28;20219;-49
2021/01/14 07:54:57;;;;;;;0.70;0.50;;;;;;;;;;5053551;28;20213;-48
2021/01/14 07:57:26;;;;;;;1.00;0.70;;;;;;;;;;5054737;28;20179;-48
2021/01/14 07:59:56;;;;;;;0.90;0.40;;;;;;;;;;5055063;28;20167;-49
2021/01/14 08:02:22;;;;;;;0.82;0.40;;;;;;;;;;5074180;28;20204;-49
2021/01/14 08:04:49;;;;;;;0.38;0.30;;;;;;;;;;5070135;28;20255;-49
2021/01/14 08:07:21;;;;;;;0.60;0.30;;;;;;;;;;5054555;28;20177;-49
2021/01/14 08:09:48;;;;;;;2.85;0.50;;;;;;;;;;5054948;28;20246;-49
2021/01/14 08:12:15;;;;;;;0.30;0.30;;;;;;;;;;5054819;28;20159;-50
2021/01/14 08:14:41;;;;;;;0.60;0.50;;;;;;;;;;5054318;28;20184;-49
2021/01/14 08:17:20;;;;;;;0.90;0.52;;;;;;;;;;5072418;28;20182;-49
2021/01/14 08:19:46;;;;;;;0.52;0.40;;;;;;;;;;5073967;28;20178;-49
2021/01/14 08:22:13;;;;;;;0.85;0.40;;;;;;;;;;5072913;28;20174;-49
2021/01/14 08:24:53;;;;;;;1.10;0.60;;;;;;;;;;5060469;28;20203;-49
2021/01/14 08:27:24;;;;;;;1.02;0.50;;;;;;;;;;5071711;28;20638;-48
2021/01/14 08:30:09;;;;;;;1.35;0.55;;;;;;;;;;5075033;28;20167;-49
2021/01/14 08:32:50;;;;;;;1.45;0.60;;;;;;;;;;5074836;28;20166;-50
2021/01/14 08:35:16;;;;;;;0.85;0.32;;;;;;;;;;5074343;28;20170;-48
2021/01/14 08:38:00;;;;;;;0.50;0.30;;;;;;;;;;5071907;28;20353;-49
2021/01/14 08:40:27;;;;;;;0.45;0.45;;;;;;;;;;5068809;28;20209;-50
2021/01/14 08:43:13;;;;;;;0.38;0.35;;;;;;;;;;5074493;28;20186;-49
2021/01/14 08:45:51;;;;;;;2.42;0.45;;;;;;;;;;5073663;28;20235;-49
2021/01/14 08:48:23;;;;;;;6.63;2.85;;;;;;;;;;5064154;28;20171;-50
2021/01/14 08:50:49;;;;;;;16.05;7.47;;;;;;;;;;5073400;28;20554;-49
2021/01/14 08:53:18;;;;;;;19.65;9.20;;;;;;;;;;5073121;28;20178;-48
2021/01/14 08:55:45;;;;;;;22.73;10.73;;;;;;;;;;5063540;28;20186;-49
2021/01/14 08:58:15;;;;;;;19.02;9.35;;;;;;;;;;5070385;28;20198;-50
2021/01/14 09:00:46;;;;;;;18.35;9.02;;;;;;;;;;5072709;28;20592;-49
2021/01/14 09:03:12;;;;;;;23.67;9.52;;;;;;;;;;5078759;28;20253;-49
2021/01/14 09:05:44;;;;;;;19.13;8.80;;;;;;;;;;5076968;28;20815;-50
2021/01/14 09:08:09;;;;;;;18.23;8.73;;;;;;;;;;5077578;28;20413;-49
2021/01/14 09:10:46;;;;;;;15.68;8.10;;;;;;;;;;5077432;28;20181;-50
2021/01/14 09:13:13;;;;;;;13.88;7.00;;;;;;;;;;5072225;28;20426;-49
2021/01/14 09:15:39;;;;;;;15.60;7.55;;;;;;;;;;5059104;28;20206;-48
2021/01/14 09:18:05;;;;;;;15.35;7.03;;;;;;;;;;5077613;28;20205;-50
2021/01/14 09:20:32;;;;;;;17.13;6.85;;;;;;;;;;5076852;28;20232;-49
2021/01/14 09:23:17;;;;;;;11.32;6.25;;;;;;;;;;5077087;28;20182;-49
2021/01/14 09:25:44;;;;;;;13.90;6.25;;;;;;;;;;5077400;28;20181;-49
2021/01/14 09:28:11;;;;;;;14.32;5.78;;;;;;;;;;5075239;28;20244;-49
2021/01/14 09:30:37;;;;;;;9.70;4.80;;;;;;;;;;5077043;28;20187;-49
2021/01/14 09:33:03;;;;;;;11.45;4.95;;;;;;;;;;5077299;28;20183;-49
2021/01/14 09:35:29;;;;;;;9.27;5.40;;;;;;;;;;5076968;28;20178;-49
2021/01/14 09:37:55;;;;;;;10.55;4.72;;;;;;;;;;5077052;28;20273;-49
2021/01/14 09:40:22;;;;;;;8.73;4.97;;;;;;;;;;5077482;28;20190;-49
2021/01/14 09:42:51;;;;;;;9.90;4.18;;;;;;;;;;5076987;28;20278;-49
2021/01/14 09:45:18;;;;;;;7.47;4.05;;;;;;;;;;5075062;28;20198;-49
2021/01/14 09:47:50;;;;;;;8.77;4.15;;;;;;;;;;5077307;28;20178;-49
2021/01/14 09:50:17;;;;;;;7.82;4.07;;;;;;;;;;5071559;28;20194;-49
2021/01/14 09:52:44;;;;;;;6.93;3.67;;;;;;;;;;5084304;28;20554;-49
2021/01/14 09:55:14;;;;;;;9.10;4.57;;;;;;;;;;5076683;28;20174;-49
2021/01/14 09:57:56;;;;;;;6.50;3.55;;;;;;;;;;5075852;28;20178;-49
2021/01/14 10:00:28;;;;;;;7.95;3.85;;;;;;;;;;5075262;28;20500;-49
2021/01/14 10:02:58;;;;;;;7.78;3.90;;;;;;;;;;5076691;28;20182;-49
2021/01/14 10:05:24;;;;;;;7.32;3.90;;;;;;;;;;5076665;28;20631;-49
2021/01/14 10:07:51;;;;;;;7.43;4.20;;;;;;;;;;5080285;28;20579;-49
2021/01/14 10:10:17;;;;;;;6.43;3.20;;;;;;;;;;5095689;28;20170;-49
2021/01/14 10:12:44;;;;;;;6.25;3.90;;;;;;;;;;5076057;28;20175;-49
2021/01/14 10:15:11;;;;;;;4.50;3.30;;;;;;;;;;5075814;28;20185;-49
2021/01/14 10:17:40;;;;;;;6.97;3.05;;;;;;;;;;5075053;28;20261;-49
2021/01/14 10:20:12;;;;;;;5.40;3.28;;;;;;;;;;5075623;28;20189;-49
2021/01/14 10:22:51;;;;;;;5.97;3.35;;;;;;;;;;5076348;28;20202;-49
2021/01/14 10:25:18;;;;;;;5.07;3.05;;;;;;;;;;5076280;28;20202;-49
2021/01/14 10:28:03;;;;;;;5.82;2.80;;;;;;;;;;5076319;28;20182;-49
2021/01/14 10:30:30;;;;;;;6.35;3.30;;;;;;;;;;5076004;28;20193;-48
2021/01/14 10:33:00;;;;;;;4.95;2.95;;;;;;;;;;5074205;28;20270;-49
2021/01/14 10:35:27;;;;;;;3.50;2.60;;;;;;;;;;5075996;28;20236;-49
2021/01/14 10:38:02;;;;;;;5.03;2.60;;;;;;;;;;5080320;28;20575;-48
2021/01/14 10:40:32;;;;;;;4.75;2.88;;;;;;;;;;5075040;28;20198;-49
2021/01/14 10:43:00;;;;;;;4.30;2.58;;;;;;;;;;5071257;28;20175;-50
2021/01/14 10:45:31;;;;;;;3.40;2.05;;;;;;;;;;5075786;28;20195;-49
2021/01/14 10:48:13;;;;;;;4.30;2.65;;;;;;;;;;5075872;28;20218;-49
2021/01/14 10:50:47;;;;;;;3.70;2.47;;;;;;;;;;5065065;28;20443;-50
2021/01/14 10:53:13;;;;;;;3.80;2.08;;;;;;;;;;5077607;28;20182;-49
2021/01/14 10:55:41;;;;;;;5.38;2.53;;;;;;;;;;5075029;28;20235;-49
2021/01/14 10:58:07;;;;;;;3.08;1.95;;;;;;;;;;5070567;28;20171;-50
2021/01/14 11:00:33;;;;;;;5.97;2.42;;;;;;;;;;5060792;28;20182;-49
2021/01/14 11:03:02;;;;;;;4.82;2.28;;;;;;;;;;5061942;28;20199;-50
2021/01/14 11:05:43;;;;;;;4.30;1.75;;;;;;;;;;5056795;28;20456;-50
2021/01/14 11:08:16;;;;;;;2.25;1.40;;;;;;;;;;5071810;28;20225;-50
2021/01/14 11:10:43;;;;;;;4.10;1.63;;;;;;;;;;5060324;28;20178;-50
2021/01/14 11:13:12;;;;;;;2.33;1.63;;;;;;;;;;5073381;28;20185;-49
2021/01/14 11:15:39;;;;;;;3.38;2.00;;;;;;;;;;5061979;28;20292;-49
2021/01/14 11:18:06;;;;;;;2.10;1.40;;;;;;;;;;5069285;28;20214;-49
2021/01/14 11:20:32;;;;;;;2.85;1.67;;;;;;;;;;5074851;28;20178;-49
2021/01/14 11:22:58;;;;;;;2.42;1.67;;;;;;;;;;5069268;28;20198;-50
2021/01/14 11:25:24;;;;;;;2.10;1.58;;;;;;;;;;5067708;28;20290;-50
2021/01/14 11:27:52;;;;;;;2.92;1.52;;;;;;;;;;5074682;28;20182;-49
2021/01/14 11:30:18;;;;;;;2.35;1.48;;;;;;;;;;5075387;28;20188;-49
2021/01/14 11:32:44;;;;;;;1.67;1.52;;;;;;;;;;5072618;28;20247;-49
2021/01/14 11:35:11;;;;;;;2.40;1.50;;;;;;;;;;5063045;28;20617;-49
2021/01/14 11:37:37;;;;;;;2.05;1.60;;;;;;;;;;5075139;28;20193;-49
2021/01/14 11:40:03;;;;;;;1.63;1.13;;;;;;;;;;5059760;28;20199;-49
2021/01/14 11:42:29;;;;;;;2.38;1.55;;;;;;;;;;5067633;28;20198;-50
2021/01/14 11:44:55;;;;;;;1.63;1.40;;;;;;;;;;5073458;28;20275;-50
2021/01/14 11:47:22;;;;;;;2.95;1.52;;;;;;;;;;5074886;28;20190;-49
2021/01/14 11:49:48;;;;;;;3.47;1.83;;;;;;;;;;5074139;28;20183;-49
2021/01/14 11:52:18;;;;;;;4.32;1.60;;;;;;;;;;5080729;28;20165;-49
2021/01/14 11:54:46;;;;;;;2.97;1.58;;;;;;;;;;5090014;28;20177;-49
2021/01/14 11:57:12;;;;;;;4.20;1.75;;;;;;;;;;5071461;28;20187;-48
2021/01/14 11:59:38;;;;;;;4.13;1.80;;;;;;;;;;5074390;28;20265;-49
2021/01/14 12:02:04;;;;;;;2.55;1.40;;;;;;;;;;5073030;28;20256;-49
2021/01/14 12:04:30;;;;;;;2.05;1.20;;;;;;;;;;5074132;28;20236;-49
2021/01/14 12:06:56;;;;;;;2.42;1.80;;;;;;;;;;5074202;28;20186;-49
2021/01/14 12:09:22;;;;;;;4.00;1.90;;;;;;;;;;5070091;28;20578;-49
2021/01/14 12:11:48;;;;;;;4.47;1.27;;;;;;;;;;5071769;28;20190;-49
2021/01/14 12:14:14;;;;;;;2.08;1.42;;;;;;;;;;5072436;28;20660;-48
2021/01/14 12:16:40;;;;;;;1.95;1.50;;;;;;;;;;5064995;28;20180;-49
2021/01/14 12:19:06;;;;;;;1.30;1.13;;;;;;;;;;5070713;28;20573;-49
2021/01/14 12:21:32;;;;;;;2.08;1.30;;;;;;;;;;5068400;28;20187;-50
2021/01/14 12:23:58;;;;;;;2.72;1.42;;;;;;;;;;5071669;28;20224;-50
2021/01/14 12:26:24;;;;;;;1.70;1.20;;;;;;;;;;5073602;28;20178;-49
2021/01/14 12:28:50;;;;;;;2.33;1.45;;;;;;;;;;5072744;28;20627;-49
2021/01/14 12:31:16;;;;;;;3.40;1.50;;;;;;;;;;5064236;28;20249;-50
2021/01/14 12:33:42;;;;;;;2.13;1.30;;;;;;;;;;5074370;28;20174;-49
2021/01/14 12:36:08;;;;;;;2.80;1.20;;;;;;;;;;5073313;28;20185;-49
2021/01/14 12:38:34;;;;;;;3.45;1.20;;;;;;;;;;5074097;28;20186;-50
2021/01/14 12:41:00;;;;;;;1.67;1.30;;;;;;;;;;5074402;28;20224;-49
2021/01/14 12:43:26;;;;;;;4.20;1.20;;;;;;;;;;5073952;28;20179;-50
2021/01/14 12:45:52;;;;;;;1.73;1.10;;;;;;;;;;5064073;28;20571;-49
2021/01/14 12:48:21;;;;;;;2.42;1.15;;;;;;;;;;5068571;28;20491;-49
2021/01/14 12:50:47;;;;;;;1.98;1.23;;;;;;;;;;5074667;28;20167;-49
2021/01/14 12:53:13;;;;;;;2.88;1.35;;;;;;;;;;5089108;28;20170;-50
2021/01/14 12:55:39;;;;;;;2.08;1.10;;;;;;;;;;5073900;28;20179;-49
2021/01/14 12:58:06;;;;;;;1.40;1.30;;;;;;;;;;5071971;28;20175;-49
2021/01/14 13:00:32;;;;;;;1.73;1.15;;;;;;;;;;5075137;28;20433;-50
2021/01/14 13:02:58;;;;;;;2.40;1.20;;;;;;;;;;5060109;28;20183;-49
2021/01/14 13:05:24;;;;;;;2.67;1.20;;;;;;;;;;5053791;28;20287;-49
2021/01/14 13:07:50;;;;;;;1.85;1.30;;;;;;;;;;5054245;28;20167;-49
2021/01/14 13:10:16;;;;;;;1.30;1.20;;;;;;;;;;5054292;28;20600;-49
2021/01/14 13:12:42;;;;;;;1.52;0.88;;;;;;;;;;5054481;28;20171;-49
2021/01/14 13:15:08;;;;;;;1.60;1.20;;;;;;;;;;5054642;28;20581;-49
2021/01/14 13:17:34;;;;;;;2.33;1.00;;;;;;;;;;5056761;28;20183;-50
2021/01/14 13:20:01;;;;;;;1.85;1.25;;;;;;;;;;5064844;28;20261;-49
2021/01/14 13:22:27;;;;;;;1.67;1.05;;;;;;;;;;5056274;28;20226;-48
2021/01/14 13:24:53;;;;;;;3.08;1.25;;;;;;;;;;5057331;28;20214;-49
2021/01/14 13:27:19;;;;;;;2.42;1.13;;;;;;;;;;5065876;28;20187;-50
2021/01/14 13:29:45;;;;;;;3.83;1.10;;;;;;;;;;5055881;28;20190;-50
2021/01/14 13:32:11;;;;;;;1.25;1.00;;;;;;;;;;5073860;28;20174;-49
2021/01/14 13:34:37;;;;;;;2.25;1.15;;;;;;;;;;5071653;28;20183;-50
2021/01/14 13:37:06;;;;;;;6.70;1.58;;;;;;;;;;5070154;28;20240;-49
2021/01/14 13:39:32;;;;;;;2.42;0.90;;;;;;;;;;5054184;28;20191;-49
2021/01/14 13:41:58;;;;;;;1.75;1.08;;;;;;;;;;5058563;28;20526;-48
2021/01/14 13:44:25;;;;;;;6.30;1.20;;;;;;;;;;5072668;28;20202;-49
2021/01/14 13:46:51;;;;;;;3.38;1.20;;;;;;;;;;5065103;28;20436;-50
2021/01/14 13:49:20;;;;;;;1.75;0.95;;;;;;;;;;5075014;28;20187;-49
2021/01/14 13:51:47;;;;;;;1.52;1.00;;;;;;;;;;5076488;28;20202;-50
2021/01/14 13:54:14;;;;;;;5.15;1.30;;;;;;;;;;5076847;28;20175;-49
2021/01/14 13:56:40;;;;;;;1.98;1.05;;;;;;;;;;5077108;28;20182;-49
2021/01/14 13:59:06;;;;;;;4.03;1.17;;;;;;;;;;5079356;28;20629;-50
2021/01/14 14:01:33;;;;;;;2.08;1.13;;;;;;;;;;5077120;28;20171;-49
2021/01/14 14:04:00;;;;;;;1.85;0.90;;;;;;;;;;5076874;28;20624;-49
2021/01/14 14:06:29;;;;;;;2.63;1.17;;;;;;;;;;5076635;28;20181;-49
2021/01/14 14:08:55;;;;;;;1.52;1.00;;;;;;;;;;5070260;28;20182;-50
2021/01/14 14:11:21;;;;;;;2.22;0.98;;;;;;;;;;5058290;28;20190;-49
2021/01/14 14:13:47;;;;;;;2.22;1.10;;;;;;;;;;5073969;28;20195;-50
2021/01/14 14:16:16;;;;;;;1.77;1.17;;;;;;;;;;5076256;28;20208;-49
2021/01/14 14:18:43;;;;;;;1.92;0.93;;;;;;;;;;5076191;28;20216;-50
2021/01/14 14:21:10;;;;;;;1.95;1.27;;;;;;;;;;5076416;28;20244;-49
2021/01/14 14:23:36;;;;;;;1.98;1.00;;;;;;;;;;5076344;28;20303;-50
2021/01/14 14:26:02;;;;;;;1.67;1.00;;;;;;;;;;5072729;28;20286;-49
2021/01/14 14:28:28;;;;;;;2.95;1.08;;;;;;;;;;5071582;28;20240;-50
2021/01/14 14:30:54;;;;;;;1.38;1.10;;;;;;;;;;5076814;28;20209;-50
2021/01/14 14:33:20;;;;;;;2.00;1.00;;;;;;;;;;5089342;28;20494;-50
2021/01/14 14:35:46;;;;;;;3.80;1.02;;;;;;;;;;5066900;28;20174;-50
2021/01/14 14:38:12;;;;;;;4.18;1.00;;;;;;;;;;5074863;28;20324;-49
2021/01/14 14:40:38;;;;;;;4.07;1.02;;;;;;;;;;5076135;28;20223;-53
2021/01/14 14:43:04;;;;;;;2.83;1.00;;;;;;;;;;5060971;28;20213;-46
2021/01/14 14:45:30;;;;;;;3.15;1.20;;;;;;;;;;5055975;28;20529;-51
2021/01/14 14:47:56;;;;;;;7.30;1.50;;;;;;;;;;5072064;28;20182;-48